sensor_id;sensor_type;location;lat;lon;timestamp;temperature;humidity
32965;DHT22;19317;48.226;11.686;2023-05-20T00:03:58;13.60;99.90
32965;DHT22;19317;48.226;11.686;2023-05-20T00:08:48;13.40;99.90
32965;DHT22;19317;48.226;11.686;2023-05-20T00:13:39;13.40;99.90
32965;DHT22;19317;48.226;11.686;2023-05-20T00:18:29;13.40;99.90
32965;DHT22;19317;48.226;11.686;2023-05-20T00:23:20;13.30;99.90
32965;DHT22;19317;48.226;11.686;2023-05-20T00:28:10;13.50;99.90
32965;DHT22;19317;48.226;11.686;2023-05-20T00:33:01;13.40;99.90
32965;DHT22;19317;48.226;11.686;2023-05-20T00:37:51;13.30;99.90
32965;DHT22;19317;48.226;11.686;2023-05-20T00:42:42;13.30;99.90
32965;DHT22;19317;48.226;11.686;2023-05-20T00:47:33;13.20;99.90
32965;DHT22;19317;48.226;11.686;2023-05-20T00:52:24;13.30;99.90
32965;DHT22;19317;48.226;11.686;2023-05-20T00:57:16;13.40;99.90
32965;DHT22;19317;48.226;11.686;2023-05-20T01:02:07;13.30;99.90
32965;DHT22;19317;48.226;11.686;2023-05-20T01:06:59;13.10;99.90
32965;DHT22;19317;48.226;11.686;2023-05-20T01:11:58;13.30;99.90
32965;DHT22;19317;48.226;11.686;2023-05-20T01:16:50;12.70;99.90
32965;DHT22;19317;48.226;11.686;2023-05-20T01:21:42;13.20;99.90
32965;DHT22;19317;48.226;11.686;2023-05-20T01:26:34;13.00;99.90
32965;DHT22;19317;48.226;11.686;2023-05-20T01:31:26;13.10;99.90
32965;DHT22;19317;48.226;11.686;2023-05-20T01:36:20;13.00;99.90
32965;DHT22;19317;48.226;11.686;2023-05-20T01:41:11;13.00;99.90
32965;DHT22;19317;48.226;11.686;2023-05-20T01:46:05;12.90;99.90
32965;DHT22;19317;48.226;11.686;2023-05-20T01:50:55;12.80;99.90
32965;DHT22;19317;48.226;11.686;2023-05-20T01:55:46;13.00;99.90
32965;DHT22;19317;48.226;11.686;2023-05-20T02:00:36;12.80;99.90
32965;DHT22;19317;48.226;11.686;2023-05-20T02:05:26;12.80;99.90
32965;DHT22;19317;48.226;11.686;2023-05-20T02:10:17;12.80;99.90
32965;DHT22;19317;48.226;11.686;2023-05-20T02:15:08;12.80;99.90
32965;DHT22;19317;48.226;11.686;2023-05-20T02:19:58;12.80;99.90
32965;DHT22;19317;48.226;11.686;2023-05-20T02:24:49;12.70;99.90
32965;DHT22;19317;48.226;11.686;2023-05-20T02:29:39;12.70;99.90
32965;DHT22;19317;48.226;11.686;2023-05-20T02:34:30;12.50;99.90
32965;DHT22;19317;48.226;11.686;2023-05-20T02:39:21;12.80;99.90
32965;DHT22;19317;48.226;11.686;2023-05-20T02:44:11;12.90;99.90
32965;DHT22;19317;48.226;11.686;2023-05-20T02:49:02;12.80;99.90
32965;DHT22;19317;48.226;11.686;2023-05-20T02:53:52;12.90;99.90
32965;DHT22;19317;48.226;11.686;2023-05-20T02:58:42;12.80;99.90
32965;DHT22;19317;48.226;11.686;2023-05-20T03:03:33;12.80;99.90
32965;DHT22;19317;48.226;11.686;2023-05-20T03:08:23;12.80;99.90
32965;DHT22;19317;48.226;11.686;2023-05-20T03:13:14;12.90;99.90
32965;DHT22;19317;48.226;11.686;2023-05-20T03:18:05;12.70;99.90
32965;DHT22;19317;48.226;11.686;2023-05-20T03:22:55;12.70;99.90
32965;DHT22;19317;48.226;11.686;2023-05-20T03:27:46;12.70;99.90
32965;DHT22;19317;48.226;11.686;2023-05-20T03:32:36;12.20;99.90
32965;DHT22;19317;48.226;11.686;2023-05-20T03:37:27;12.30;99.90
32965;DHT22;19317;48.226;11.686;2023-05-20T03:42:17;12.60;99.90
32965;DHT22;19317;48.226;11.686;2023-05-20T03:47:08;12.60;99.90
32965;DHT22;19317;48.226;11.686;2023-05-20T03:51:58;12.40;99.90
32965;DHT22;19317;48.226;11.686;2023-05-20T03:56:49;11.80;99.90
32965;DHT22;19317;48.226;11.686;2023-05-20T04:01:39;11.70;99.90
32965;DHT22;19317;48.226;11.686;2023-05-20T04:06:29;11.90;99.90
32965;DHT22;19317;48.226;11.686;2023-05-20T04:11:20;11.60;99.90
32965;DHT22;19317;48.226;11.686;2023-05-20T04:16:10;11.90;99.90
32965;DHT22;19317;48.226;11.686;2023-05-20T04:21:01;12.10;99.90
32965;DHT22;19317;48.226;11.686;2023-05-20T04:25:51;12.20;99.90
32965;DHT22;19317;48.226;11.686;2023-05-20T04:30:42;11.90;99.90
32965;DHT22;19317;48.226;11.686;2023-05-20T04:35:32;12.10;99.90
32965;DHT22;19317;48.226;11.686;2023-05-20T04:40:23;12.20;99.90
32965;DHT22;19317;48.226;11.686;2023-05-20T04:45:13;12.10;99.90
32965;DHT22;19317;48.226;11.686;2023-05-20T04:50:05;12.10;99.90
32965;DHT22;19317;48.226;11.686;2023-05-20T04:54:56;12.00;99.90
32965;DHT22;19317;48.226;11.686;2023-05-20T04:59:47;12.10;99.90
32965;DHT22;19317;48.226;11.686;2023-05-20T05:04:37;12.30;99.90
32965;DHT22;19317;48.226;11.686;2023-05-20T05:09:27;12.10;99.90
32965;DHT22;19317;48.226;11.686;2023-05-20T05:14:18;12.30;99.90
32965;DHT22;19317;48.226;11.686;2023-05-20T05:19:08;12.10;99.90
32965;DHT22;19317;48.226;11.686;2023-05-20T05:23:59;12.20;99.90
32965;DHT22;19317;48.226;11.686;2023-05-20T05:28:49;12.20;99.90
32965;DHT22;19317;48.226;11.686;2023-05-20T05:33:40;12.40;99.90
32965;DHT22;19317;48.226;11.686;2023-05-20T05:38:30;12.40;99.90
32965;DHT22;19317;48.226;11.686;2023-05-20T05:43:21;12.50;99.90
32965;DHT22;19317;48.226;11.686;2023-05-20T05:48:11;13.00;99.90
32965;DHT22;19317;48.226;11.686;2023-05-20T05:53:01;12.90;99.90
32965;DHT22;19317;48.226;11.686;2023-05-20T05:57:52;12.60;99.90
32965;DHT22;19317;48.226;11.686;2023-05-20T06:02:42;13.20;99.90
32965;DHT22;19317;48.226;11.686;2023-05-20T06:07:33;13.10;99.90
32965;DHT22;19317;48.226;11.686;2023-05-20T06:12:23;13.00;99.90
32965;DHT22;19317;48.226;11.686;2023-05-20T06:17:14;13.40;99.90
32965;DHT22;19317;48.226;11.686;2023-05-20T06:22:04;13.40;99.90
32965;DHT22;19317;48.226;11.686;2023-05-20T06:26:55;13.20;99.90
32965;DHT22;19317;48.226;11.686;2023-05-20T06:31:45;13.10;99.90
32965;DHT22;19317;48.226;11.686;2023-05-20T06:36:36;13.20;99.90
32965;DHT22;19317;48.226;11.686;2023-05-20T06:41:26;13.40;99.90
32965;DHT22;19317;48.226;11.686;2023-05-20T06:46:17;13.50;99.90
32965;DHT22;19317;48.226;11.686;2023-05-20T06:51:07;13.50;99.90
32965;DHT22;19317;48.226;11.686;2023-05-20T06:55:58;13.60;99.90
32965;DHT22;19317;48.226;11.686;2023-05-20T07:00:48;13.80;99.90
32965;DHT22;19317;48.226;11.686;2023-05-20T07:05:38;13.50;99.90
32965;DHT22;19317;48.226;11.686;2023-05-20T07:10:29;14.00;99.90
32965;DHT22;19317;48.226;11.686;2023-05-20T07:15:19;14.00;99.90
32965;DHT22;19317;48.226;11.686;2023-05-20T07:20:10;14.30;99.90
32965;DHT22;19317;48.226;11.686;2023-05-20T07:25:00;14.50;99.90
32965;DHT22;19317;48.226;11.686;2023-05-20T07:29:51;14.60;99.90
32965;DHT22;19317;48.226;11.686;2023-05-20T07:34:41;14.30;99.90
32965;DHT22;19317;48.226;11.686;2023-05-20T07:39:32;14.60;99.90
32965;DHT22;19317;48.226;11.686;2023-05-20T07:44:22;14.70;99.90
32965;DHT22;19317;48.226;11.686;2023-05-20T07:49:14;14.80;99.90
32965;DHT22;19317;48.226;11.686;2023-05-20T07:54:04;15.00;99.90
32965;DHT22;19317;48.226;11.686;2023-05-20T07:58:56;15.30;99.90
32965;DHT22;19317;48.226;11.686;2023-05-20T08:03:47;15.40;99.90
32965;DHT22;19317;48.226;11.686;2023-05-20T08:08:38;15.60;99.90
32965;DHT22;19317;48.226;11.686;2023-05-20T08:13:28;15.70;99.90
32965;DHT22;19317;48.226;11.686;2023-05-20T08:18:19;15.90;99.90
32965;DHT22;19317;48.226;11.686;2023-05-20T08:23:09;16.20;99.90
32965;DHT22;19317;48.226;11.686;2023-05-20T08:28:03;16.30;99.90
32965;DHT22;19317;48.226;11.686;2023-05-20T08:32:54;16.40;99.90
32965;DHT22;19317;48.226;11.686;2023-05-20T08:37:44;16.50;99.90
32965;DHT22;19317;48.226;11.686;2023-05-20T08:42:35;16.40;99.90
32965;DHT22;19317;48.226;11.686;2023-05-20T08:47:25;16.60;99.90
32965;DHT22;19317;48.226;11.686;2023-05-20T08:52:21;16.90;99.90
32965;DHT22;19317;48.226;11.686;2023-05-20T08:57:12;16.60;99.90
32965;DHT22;19317;48.226;11.686;2023-05-20T09:02:02;16.90;99.90
32965;DHT22;19317;48.226;11.686;2023-05-20T09:06:53;16.90;99.90
32965;DHT22;19317;48.226;11.686;2023-05-20T09:11:43;17.00;99.90
32965;DHT22;19317;48.226;11.686;2023-05-20T09:16:34;17.10;99.90
32965;DHT22;19317;48.226;11.686;2023-05-20T09:21:27;17.20;99.90
32965;DHT22;19317;48.226;11.686;2023-05-20T09:26:18;17.40;99.90
32965;DHT22;19317;48.226;11.686;2023-05-20T09:31:09;17.50;99.90
32965;DHT22;19317;48.226;11.686;2023-05-20T09:36:07;17.70;99.90
32965;DHT22;19317;48.226;11.686;2023-05-20T09:40:58;17.80;99.90
32965;DHT22;19317;48.226;11.686;2023-05-20T09:45:49;18.10;99.90
32965;DHT22;19317;48.226;11.686;2023-05-20T09:50:40;18.30;99.90
32965;DHT22;19317;48.226;11.686;2023-05-20T09:55:31;18.20;99.90
32965;DHT22;19317;48.226;11.686;2023-05-20T10:00:22;18.40;99.90
32965;DHT22;19317;48.226;11.686;2023-05-20T10:05:16;18.30;99.90
32965;DHT22;19317;48.226;11.686;2023-05-20T10:15:16;18.50;99.90
32965;DHT22;19317;48.226;11.686;2023-05-20T10:20:07;18.70;99.90
32965;DHT22;19317;48.226;11.686;2023-05-20T10:24:59;18.80;99.90
32965;DHT22;19317;48.226;11.686;2023-05-20T10:29:53;18.90;99.90
32965;DHT22;19317;48.226;11.686;2023-05-20T10:34:46;18.90;99.90
32965;DHT22;19317;48.226;11.686;2023-05-20T10:39:36;19.10;99.90
32965;DHT22;19317;48.226;11.686;2023-05-20T10:44:27;19.50;99.90
32965;DHT22;19317;48.226;11.686;2023-05-20T10:49:18;19.80;99.90
32965;DHT22;19317;48.226;11.686;2023-05-20T10:54:09;19.90;99.90
32965;DHT22;19317;48.226;11.686;2023-05-20T10:59:00;20.30;99.90
32965;DHT22;19317;48.226;11.686;2023-05-20T11:03:53;20.30;99.90
32965;DHT22;19317;48.226;11.686;2023-05-20T11:08:45;20.30;99.90
32965;DHT22;19317;48.226;11.686;2023-05-20T11:13:35;20.20;99.90
32965;DHT22;19317;48.226;11.686;2023-05-20T11:18:26;20.40;99.90
32965;DHT22;19317;48.226;11.686;2023-05-20T11:23:17;20.60;99.90
32965;DHT22;19317;48.226;11.686;2023-05-20T11:28:12;20.70;99.90
32965;DHT22;19317;48.226;11.686;2023-05-20T11:33:03;20.70;99.90
32965;DHT22;19317;48.226;11.686;2023-05-20T11:37:55;20.60;99.90
32965;DHT22;19317;48.226;11.686;2023-05-20T11:42:45;20.50;99.90
32965;DHT22;19317;48.226;11.686;2023-05-20T11:47:36;20.50;99.90
32965;DHT22;19317;48.226;11.686;2023-05-20T11:52:27;21.00;99.90
32965;DHT22;19317;48.226;11.686;2023-05-20T11:57:18;21.10;99.90
32965;DHT22;19317;48.226;11.686;2023-05-20T12:02:09;21.00;99.90
32965;DHT22;19317;48.226;11.686;2023-05-20T12:06:59;21.10;99.90
32965;DHT22;19317;48.226;11.686;2023-05-20T12:11:50;21.30;99.90
32965;DHT22;19317;48.226;11.686;2023-05-20T12:16:40;21.50;99.90
32965;DHT22;19317;48.226;11.686;2023-05-20T12:21:31;21.40;99.90
32965;DHT22;19317;48.226;11.686;2023-05-20T12:26:27;21.20;99.90
32965;DHT22;19317;48.226;11.686;2023-05-20T12:31:18;21.40;99.90
32965;DHT22;19317;48.226;11.686;2023-05-20T12:36:09;21.60;99.90
32965;DHT22;19317;48.226;11.686;2023-05-20T12:41:00;21.50;99.90
32965;DHT22;19317;48.226;11.686;2023-05-20T12:45:50;21.50;99.90
32965;DHT22;19317;48.226;11.686;2023-05-20T12:50:41;21.50;99.90
32965;DHT22;19317;48.226;11.686;2023-05-20T12:55:31;21.60;99.90
32965;DHT22;19317;48.226;11.686;2023-05-20T13:00:22;21.70;99.90
32965;DHT22;19317;48.226;11.686;2023-05-20T13:05:12;21.70;99.90
32965;DHT22;19317;48.226;11.686;2023-05-20T13:10:03;21.80;99.90
32965;DHT22;19317;48.226;11.686;2023-05-20T13:14:54;22.10;99.90
32965;DHT22;19317;48.226;11.686;2023-05-20T13:19:44;22.00;99.90
32965;DHT22;19317;48.226;11.686;2023-05-20T13:24:36;21.90;99.90
32965;DHT22;19317;48.226;11.686;2023-05-20T13:29:26;22.00;99.90
32965;DHT22;19317;48.226;11.686;2023-05-20T13:34:17;22.00;99.90
32965;DHT22;19317;48.226;11.686;2023-05-20T13:39:08;22.10;99.90
32965;DHT22;19317;48.226;11.686;2023-05-20T13:43:58;21.90;99.90
32965;DHT22;19317;48.226;11.686;2023-05-20T13:48:49;21.90;99.90
32965;DHT22;19317;48.226;11.686;2023-05-20T13:53:39;22.00;99.90
32965;DHT22;19317;48.226;11.686;2023-05-20T13:58:30;22.30;99.90
32965;DHT22;19317;48.226;11.686;2023-05-20T14:03:20;22.20;99.90
32965;DHT22;19317;48.226;11.686;2023-05-20T14:08:11;21.90;99.90
32965;DHT22;19317;48.226;11.686;2023-05-20T14:13:02;21.80;99.90
32965;DHT22;19317;48.226;11.686;2023-05-20T14:17:52;21.80;99.90
32965;DHT22;19317;48.226;11.686;2023-05-20T14:22:42;21.90;99.90
32965;DHT22;19317;48.226;11.686;2023-05-20T14:27:33;21.80;99.90
32965;DHT22;19317;48.226;11.686;2023-05-20T14:32:24;21.80;99.90
32965;DHT22;19317;48.226;11.686;2023-05-20T14:37:14;21.70;99.90
32965;DHT22;19317;48.226;11.686;2023-05-20T14:42:05;21.50;99.90
32965;DHT22;19317;48.226;11.686;2023-05-20T14:46:55;21.50;99.90
32965;DHT22;19317;48.226;11.686;2023-05-20T14:51:46;21.50;99.90
32965;DHT22;19317;48.226;11.686;2023-05-20T14:56:36;21.40;99.90
32965;DHT22;19317;48.226;11.686;2023-05-20T15:01:27;21.40;99.90
32965;DHT22;19317;48.226;11.686;2023-05-20T15:06:17;21.50;99.90
32965;DHT22;19317;48.226;11.686;2023-05-20T15:11:08;21.50;99.90
32965;DHT22;19317;48.226;11.686;2023-05-20T15:15:58;21.50;99.90
32965;DHT22;19317;48.226;11.686;2023-05-20T15:20:49;21.50;99.90
32965;DHT22;19317;48.226;11.686;2023-05-20T15:25:39;21.70;99.90
32965;DHT22;19317;48.226;11.686;2023-05-20T15:30:30;21.70;99.90
32965;DHT22;19317;48.226;11.686;2023-05-20T15:35:20;21.60;99.90
32965;DHT22;19317;48.226;11.686;2023-05-20T15:40:11;21.50;99.90
32965;DHT22;19317;48.226;11.686;2023-05-20T15:45:01;21.40;99.90
32965;DHT22;19317;48.226;11.686;2023-05-20T15:49:52;21.40;99.90
32965;DHT22;19317;48.226;11.686;2023-05-20T15:54:43;21.40;99.90
32965;DHT22;19317;48.226;11.686;2023-05-20T15:59:33;21.60;99.90
32965;DHT22;19317;48.226;11.686;2023-05-20T16:04:24;21.60;99.90
32965;DHT22;19317;48.226;11.686;2023-05-20T16:09:14;21.50;99.90
32965;DHT22;19317;48.226;11.686;2023-05-20T16:14:05;21.40;99.90
32965;DHT22;19317;48.226;11.686;2023-05-20T16:18:55;21.30;99.90
32965;DHT22;19317;48.226;11.686;2023-05-20T16:23:46;21.20;99.90
32965;DHT22;19317;48.226;11.686;2023-05-20T16:28:36;21.20;99.90
32965;DHT22;19317;48.226;11.686;2023-05-20T16:33:27;21.20;99.90
32965;DHT22;19317;48.226;11.686;2023-05-20T16:38:17;21.10;99.90
32965;DHT22;19317;48.226;11.686;2023-05-20T16:43:08;21.10;99.90
32965;DHT22;19317;48.226;11.686;2023-05-20T16:47:58;21.00;99.90
32965;DHT22;19317;48.226;11.686;2023-05-20T16:52:49;21.00;99.90
32965;DHT22;19317;48.226;11.686;2023-05-20T16:57:39;20.90;99.90
32965;DHT22;19317;48.226;11.686;2023-05-20T17:02:30;20.80;99.90
32965;DHT22;19317;48.226;11.686;2023-05-20T17:07:20;20.90;99.90
32965;DHT22;19317;48.226;11.686;2023-05-20T17:12:11;20.80;99.90
32965;DHT22;19317;48.226;11.686;2023-05-20T17:17:01;20.70;99.90
32965;DHT22;19317;48.226;11.686;2023-05-20T17:21:51;20.80;99.90
32965;DHT22;19317;48.226;11.686;2023-05-20T17:26:42;20.70;99.90
32965;DHT22;19317;48.226;11.686;2023-05-20T17:31:32;20.70;99.90
32965;DHT22;19317;48.226;11.686;2023-05-20T17:36:23;20.60;99.90
32965;DHT22;19317;48.226;11.686;2023-05-20T17:41:13;20.50;99.90
32965;DHT22;19317;48.226;11.686;2023-05-20T17:46:04;20.40;99.90
32965;DHT22;19317;48.226;11.686;2023-05-20T17:50:54;20.50;99.90
32965;DHT22;19317;48.226;11.686;2023-05-20T17:55:45;20.40;99.90
32965;DHT22;19317;48.226;11.686;2023-05-20T18:00:35;20.30;99.90
32965;DHT22;19317;48.226;11.686;2023-05-20T18:05:26;20.30;99.90
32965;DHT22;19317;48.226;11.686;2023-05-20T18:10:16;20.20;99.90
32965;DHT22;19317;48.226;11.686;2023-05-20T18:15:07;20.10;99.90
32965;DHT22;19317;48.226;11.686;2023-05-20T18:19:58;20.10;99.90
32965;DHT22;19317;48.226;11.686;2023-05-20T18:24:48;20.00;99.90
32965;DHT22;19317;48.226;11.686;2023-05-20T18:29:39;20.00;99.90
32965;DHT22;19317;48.226;11.686;2023-05-20T18:34:29;19.90;99.90
32965;DHT22;19317;48.226;11.686;2023-05-20T18:39:20;19.80;99.90
32965;DHT22;19317;48.226;11.686;2023-05-20T18:44:10;19.60;99.90
32965;DHT22;19317;48.226;11.686;2023-05-20T18:49:01;19.70;99.90
32965;DHT22;19317;48.226;11.686;2023-05-20T18:53:51;19.60;99.90
32965;DHT22;19317;48.226;11.686;2023-05-20T18:58:42;19.50;99.90
32965;DHT22;19317;48.226;11.686;2023-05-20T19:03:32;19.40;99.90
32965;DHT22;19317;48.226;11.686;2023-05-20T19:08:23;19.20;99.90
32965;DHT22;19317;48.226;11.686;2023-05-20T19:13:13;19.00;99.90
32965;DHT22;19317;48.226;11.686;2023-05-20T19:18:03;19.00;99.90
32965;DHT22;19317;48.226;11.686;2023-05-20T19:22:54;18.80;99.90
32965;DHT22;19317;48.226;11.686;2023-05-20T19:27:44;18.60;99.90
32965;DHT22;19317;48.226;11.686;2023-05-20T19:32:35;18.70;99.90
32965;DHT22;19317;48.226;11.686;2023-05-20T19:37:25;18.60;99.90
32965;DHT22;19317;48.226;11.686;2023-05-20T19:42:16;18.60;99.90
32965;DHT22;19317;48.226;11.686;2023-05-20T19:47:06;18.50;99.90
32965;DHT22;19317;48.226;11.686;2023-05-20T19:51:57;18.60;99.90
32965;DHT22;19317;48.226;11.686;2023-05-20T19:56:47;18.40;99.90
32965;DHT22;19317;48.226;11.686;2023-05-20T20:01:38;18.30;99.90
32965;DHT22;19317;48.226;11.686;2023-05-20T20:06:28;18.30;99.90
32965;DHT22;19317;48.226;11.686;2023-05-20T20:11:19;18.20;99.90
32965;DHT22;19317;48.226;11.686;2023-05-20T20:16:09;18.30;99.90
32965;DHT22;19317;48.226;11.686;2023-05-20T20:21:00;18.20;99.90
32965;DHT22;19317;48.226;11.686;2023-05-20T20:25:50;18.00;99.90
32965;DHT22;19317;48.226;11.686;2023-05-20T20:30:41;17.90;99.90
32965;DHT22;19317;48.226;11.686;2023-05-20T20:35:32;17.90;99.90
32965;DHT22;19317;48.226;11.686;2023-05-20T20:40:23;17.90;99.90
32965;DHT22;19317;48.226;11.686;2023-05-20T20:45:14;18.00;99.90
32965;DHT22;19317;48.226;11.686;2023-05-20T20:50:05;17.80;99.90
32965;DHT22;19317;48.226;11.686;2023-05-20T20:54:56;17.80;99.90
32965;DHT22;19317;48.226;11.686;2023-05-20T20:59:46;17.50;99.90
32965;DHT22;19317;48.226;11.686;2023-05-20T21:04:37;17.50;99.90
32965;DHT22;19317;48.226;11.686;2023-05-20T21:09:27;17.60;99.90
32965;DHT22;19317;48.226;11.686;2023-05-20T21:14:21;17.30;99.90
32965;DHT22;19317;48.226;11.686;2023-05-20T21:19:11;17.20;99.90
32965;DHT22;19317;48.226;11.686;2023-05-20T21:24:02;17.20;99.90
32965;DHT22;19317;48.226;11.686;2023-05-20T21:28:52;17.10;99.90
32965;DHT22;19317;48.226;11.686;2023-05-20T21:33:43;17.00;99.90
32965;DHT22;19317;48.226;11.686;2023-05-20T21:38:33;16.90;99.90
32965;DHT22;19317;48.226;11.686;2023-05-20T21:43:24;17.00;99.90
32965;DHT22;19317;48.226;11.686;2023-05-20T21:48:15;17.00;99.90
32965;DHT22;19317;48.226;11.686;2023-05-20T21:53:05;16.90;99.90
32965;DHT22;19317;48.226;11.686;2023-05-20T21:57:56;16.80;99.90
32965;DHT22;19317;48.226;11.686;2023-05-20T22:02:47;16.80;99.90
32965;DHT22;19317;48.226;11.686;2023-05-20T22:07:38;16.70;99.90
32965;DHT22;19317;48.226;11.686;2023-05-20T22:12:28;16.60;99.90
32965;DHT22;19317;48.226;11.686;2023-05-20T22:17:19;16.50;99.90
32965;DHT22;19317;48.226;11.686;2023-05-20T22:22:09;16.70;99.90
32965;DHT22;19317;48.226;11.686;2023-05-20T22:27:00;16.70;99.90
32965;DHT22;19317;48.226;11.686;2023-05-20T22:31:50;16.80;99.90
32965;DHT22;19317;48.226;11.686;2023-05-20T22:36:40;16.70;99.90
32965;DHT22;19317;48.226;11.686;2023-05-20T22:41:31;16.60;99.90
32965;DHT22;19317;48.226;11.686;2023-05-20T22:46:22;16.60;99.90
32965;DHT22;19317;48.226;11.686;2023-05-20T22:51:13;16.40;99.90
32965;DHT22;19317;48.226;11.686;2023-05-20T22:56:03;16.40;99.90
32965;DHT22;19317;48.226;11.686;2023-05-20T23:00:54;16.40;99.90
32965;DHT22;19317;48.226;11.686;2023-05-20T23:05:44;16.40;99.90
32965;DHT22;19317;48.226;11.686;2023-05-20T23:10:35;16.30;99.90
32965;DHT22;19317;48.226;11.686;2023-05-20T23:15:25;16.30;99.90
32965;DHT22;19317;48.226;11.686;2023-05-20T23:20:16;16.40;99.90
32965;DHT22;19317;48.226;11.686;2023-05-20T23:25:06;16.40;99.90
32965;DHT22;19317;48.226;11.686;2023-05-20T23:29:57;16.30;99.90
32965;DHT22;19317;48.226;11.686;2023-05-20T23:34:48;16.30;99.90
32965;DHT22;19317;48.226;11.686;2023-05-20T23:39:38;16.20;99.90
32965;DHT22;19317;48.226;11.686;2023-05-20T23:44:28;16.20;99.90
32965;DHT22;19317;48.226;11.686;2023-05-20T23:49:19;16.20;99.90
32965;DHT22;19317;48.226;11.686;2023-05-20T23:54:09;16.20;99.90
32965;DHT22;19317;48.226;11.686;2023-05-20T23:59:00;16.20;99.90
